Hamel, Minnesota
Current Conditions -  °F | °C
As of 7:53 AM on Sunday 23 Nov 2014 (Local Time) from KMIC Reporting Station
Moderate Fog Moderate Fog  
Wind Chill: 42°   Ceiling: 800
Heat Index: 44°   Visibility: 0.25mi
Dew Point: 42°   Wind: 5mph
Humidity: 93%   Direction: 190°S
Pressure: 29.44"   Gusts: NA
Location:  45.04°N, 93.53°W
Report Text: KMIC 231353Z 19004KT 1/4SM FG OVC008 07/06 A2944 RMK AO2 SLP976 T00670056
Loading
Personal Weather Stations






























Interactive Weather Map New forecast layout! Learn more

10-Day Weather Forecast

Advertisements
Track Severe Weather on mobile